sensor_id;sensor_type;location;lat;lon;timestamp;P1;durP1;ratioP1;P2;durP2;ratioP2
8100;SDS011;4093;53.470;9.832;2023-04-01T00:00:48;7.93;;;5.13;;
8100;SDS011;4093;53.470;9.832;2023-04-01T00:03:17;8.57;;;4.17;;
8100;SDS011;4093;53.470;9.832;2023-04-01T00:05:45;10.67;;;4.70;;
8100;SDS011;4093;53.470;9.832;2023-04-01T00:08:13;7.07;;;4.47;;
8100;SDS011;4093;53.470;9.832;2023-04-01T00:10:40;6.87;;;4.43;;
8100;SDS011;4093;53.470;9.832;2023-04-01T00:13:09;7.43;;;4.63;;
8100;SDS011;4093;53.470;9.832;2023-04-01T00:15:37;8.57;;;4.30;;
8100;SDS011;4093;53.470;9.832;2023-04-01T00:18:05;8.67;;;4.67;;
8100;SDS011;4093;53.470;9.832;2023-04-01T00:20:33;7.53;;;5.07;;
8100;SDS011;4093;53.470;9.832;2023-04-01T00:23:01;8.43;;;4.83;;
8100;SDS011;4093;53.470;9.832;2023-04-01T00:25:29;7.30;;;5.10;;
8100;SDS011;4093;53.470;9.832;2023-04-01T00:27:57;9.17;;;4.67;;
8100;SDS011;4093;53.470;9.832;2023-04-01T00:30:26;8.77;;;4.90;;
8100;SDS011;4093;53.470;9.832;2023-04-01T00:32:54;6.77;;;4.53;;
8100;SDS011;4093;53.470;9.832;2023-04-01T00:35:22;5.77;;;4.67;;
8100;SDS011;4093;53.470;9.832;2023-04-01T00:37:49;9.83;;;5.00;;
8100;SDS011;4093;53.470;9.832;2023-04-01T00:40:22;7.80;;;4.50;;
8100;SDS011;4093;53.470;9.832;2023-04-01T00:42:53;7.63;;;4.27;;
8100;SDS011;4093;53.470;9.832;2023-04-01T00:45:31;6.87;;;4.90;;
8100;SDS011;4093;53.470;9.832;2023-04-01T00:48:03;7.23;;;4.80;;
8100;SDS011;4093;53.470;9.832;2023-04-01T00:50:34;5.60;;;4.50;;
8100;SDS011;4093;53.470;9.832;2023-04-01T00:53:04;7.87;;;4.57;;
8100;SDS011;4093;53.470;9.832;2023-04-01T00:55:35;8.30;;;5.10;;
8100;SDS011;4093;53.470;9.832;2023-04-01T00:58:09;8.73;;;4.80;;
8100;SDS011;4093;53.470;9.832;2023-04-01T01:00:42;8.73;;;5.23;;
8100;SDS011;4093;53.470;9.832;2023-04-01T01:03:10;7.57;;;5.30;;
8100;SDS011;4093;53.470;9.832;2023-04-01T01:05:45;5.53;;;4.60;;
8100;SDS011;4093;53.470;9.832;2023-04-01T01:08:25;7.93;;;5.20;;
8100;SDS011;4093;53.470;9.832;2023-04-01T01:11:04;9.40;;;5.60;;
8100;SDS011;4093;53.470;9.832;2023-04-01T01:13:36;6.40;;;4.80;;
8100;SDS011;4093;53.470;9.832;2023-04-01T01:16:17;6.93;;;5.03;;
8100;SDS011;4093;53.470;9.832;2023-04-01T01:18:53;9.93;;;5.23;;
8100;SDS011;4093;53.470;9.832;2023-04-01T01:21:31;6.83;;;5.07;;
8100;SDS011;4093;53.470;9.832;2023-04-01T01:24:23;7.37;;;4.57;;
8100;SDS011;4093;53.470;9.832;2023-04-01T01:27:00;6.93;;;4.43;;
8100;SDS011;4093;53.470;9.832;2023-04-01T01:32:42;6.17;;;4.50;;
8100;SDS011;4093;53.470;9.832;2023-04-01T01:35:24;9.17;;;5.07;;
8100;SDS011;4093;53.470;9.832;2023-04-01T01:37:56;7.87;;;5.43;;
8100;SDS011;4093;53.470;9.832;2023-04-01T01:40:27;7.77;;;5.03;;
8100;SDS011;4093;53.470;9.832;2023-04-01T01:42:59;6.90;;;5.53;;
8100;SDS011;4093;53.470;9.832;2023-04-01T01:45:32;6.70;;;5.17;;
8100;SDS011;4093;53.470;9.832;2023-04-01T01:48:03;7.17;;;5.13;;
8100;SDS011;4093;53.470;9.832;2023-04-01T01:50:35;9.07;;;5.70;;
8100;SDS011;4093;53.470;9.832;2023-04-01T01:53:05;8.03;;;5.27;;
8100;SDS011;4093;53.470;9.832;2023-04-01T01:55:35;9.17;;;5.77;;
8100;SDS011;4093;53.470;9.832;2023-04-01T01:58:05;9.20;;;5.90;;
8100;SDS011;4093;53.470;9.832;2023-04-01T02:00:37;8.60;;;5.57;;
8100;SDS011;4093;53.470;9.832;2023-04-01T02:03:05;9.50;;;5.63;;
8100;SDS011;4093;53.470;9.832;2023-04-01T02:05:33;7.83;;;5.50;;
8100;SDS011;4093;53.470;9.832;2023-04-01T02:08:05;10.67;;;6.43;;
8100;SDS011;4093;53.470;9.832;2023-04-01T02:10:36;10.30;;;6.10;;
8100;SDS011;4093;53.470;9.832;2023-04-01T02:13:08;9.73;;;6.57;;
8100;SDS011;4093;53.470;9.832;2023-04-01T02:15:42;11.93;;;6.77;;
8100;SDS011;4093;53.470;9.832;2023-04-01T02:18:14;8.53;;;6.07;;
8100;SDS011;4093;53.470;9.832;2023-04-01T02:20:44;11.13;;;6.67;;
8100;SDS011;4093;53.470;9.832;2023-04-01T02:23:14;9.50;;;6.33;;
8100;SDS011;4093;53.470;9.832;2023-04-01T02:25:42;12.00;;;6.47;;
8100;SDS011;4093;53.470;9.832;2023-04-01T02:28:12;8.97;;;7.10;;
8100;SDS011;4093;53.470;9.832;2023-04-01T02:30:42;11.07;;;6.23;;
8100;SDS011;4093;53.470;9.832;2023-04-01T02:33:11;8.67;;;6.50;;
8100;SDS011;4093;53.470;9.832;2023-04-01T02:35:39;8.83;;;7.00;;
8100;SDS011;4093;53.470;9.832;2023-04-01T02:38:07;9.13;;;6.43;;
8100;SDS011;4093;53.470;9.832;2023-04-01T02:40:44;8.23;;;6.70;;
8100;SDS011;4093;53.470;9.832;2023-04-01T02:43:14;8.27;;;6.80;;
8100;SDS011;4093;53.470;9.832;2023-04-01T02:45:43;11.50;;;7.73;;
8100;SDS011;4093;53.470;9.832;2023-04-01T02:48:11;10.73;;;7.30;;
8100;SDS011;4093;53.470;9.832;2023-04-01T02:50:40;15.37;;;8.03;;
8100;SDS011;4093;53.470;9.832;2023-04-01T02:53:08;9.50;;;7.10;;
8100;SDS011;4093;53.470;9.832;2023-04-01T02:55:35;8.00;;;6.63;;
8100;SDS011;4093;53.470;9.832;2023-04-01T02:58:04;11.43;;;7.03;;
8100;SDS011;4093;53.470;9.832;2023-04-01T03:00:32;10.33;;;7.50;;
8100;SDS011;4093;53.470;9.832;2023-04-01T03:03:00;11.50;;;8.20;;
8100;SDS011;4093;53.470;9.832;2023-04-01T03:05:29;9.90;;;7.17;;
8100;SDS011;4093;53.470;9.832;2023-04-01T03:07:57;8.07;;;7.07;;
8100;SDS011;4093;53.470;9.832;2023-04-01T03:10:25;9.17;;;6.93;;
8100;SDS011;4093;53.470;9.832;2023-04-01T03:12:52;9.73;;;6.80;;
8100;SDS011;4093;53.470;9.832;2023-04-01T03:15:22;13.63;;;8.73;;
8100;SDS011;4093;53.470;9.832;2023-04-01T03:17:49;8.53;;;7.63;;
8100;SDS011;4093;53.470;9.832;2023-04-01T03:20:17;10.77;;;7.73;;
8100;SDS011;4093;53.470;9.832;2023-04-01T03:22:45;12.00;;;7.47;;
8100;SDS011;4093;53.470;9.832;2023-04-01T03:25:13;11.73;;;8.17;;
8100;SDS011;4093;53.470;9.832;2023-04-01T03:27:41;10.13;;;7.57;;
8100;SDS011;4093;53.470;9.832;2023-04-01T03:30:09;12.33;;;8.43;;
8100;SDS011;4093;53.470;9.832;2023-04-01T03:32:38;9.47;;;8.20;;
8100;SDS011;4093;53.470;9.832;2023-04-01T03:35:06;12.00;;;8.00;;
8100;SDS011;4093;53.470;9.832;2023-04-01T03:37:35;11.00;;;8.03;;
8100;SDS011;4093;53.470;9.832;2023-04-01T03:40:04;11.20;;;8.80;;
8100;SDS011;4093;53.470;9.832;2023-04-01T03:42:33;9.97;;;7.67;;
8100;SDS011;4093;53.470;9.832;2023-04-01T03:45:01;10.77;;;7.63;;
8100;SDS011;4093;53.470;9.832;2023-04-01T03:47:29;14.63;;;7.90;;
8100;SDS011;4093;53.470;9.832;2023-04-01T03:49:59;12.17;;;8.53;;
8100;SDS011;4093;53.470;9.832;2023-04-01T03:52:26;13.70;;;7.77;;
8100;SDS011;4093;53.470;9.832;2023-04-01T03:54:54;9.90;;;8.27;;
8100;SDS011;4093;53.470;9.832;2023-04-01T03:57:22;13.37;;;8.43;;
8100;SDS011;4093;53.470;9.832;2023-04-01T03:59:50;10.33;;;7.80;;
8100;SDS011;4093;53.470;9.832;2023-04-01T04:02:18;11.63;;;7.80;;
8100;SDS011;4093;53.470;9.832;2023-04-01T04:04:46;12.10;;;8.23;;
8100;SDS011;4093;53.470;9.832;2023-04-01T04:07:15;11.33;;;8.00;;
8100;SDS011;4093;53.470;9.832;2023-04-01T04:09:43;11.57;;;8.57;;
8100;SDS011;4093;53.470;9.832;2023-04-01T04:12:11;9.27;;;8.17;;
8100;SDS011;4093;53.470;9.832;2023-04-01T04:14:38;11.40;;;8.57;;
8100;SDS011;4093;53.470;9.832;2023-04-01T04:17:06;10.53;;;8.70;;
8100;SDS011;4093;53.470;9.832;2023-04-01T04:19:38;12.13;;;8.73;;
8100;SDS011;4093;53.470;9.832;2023-04-01T04:22:05;11.10;;;8.87;;
8100;SDS011;4093;53.470;9.832;2023-04-01T04:24:35;12.67;;;8.97;;
8100;SDS011;4093;53.470;9.832;2023-04-01T04:27:03;12.83;;;8.70;;
8100;SDS011;4093;53.470;9.832;2023-04-01T04:29:31;12.80;;;9.00;;
8100;SDS011;4093;53.470;9.832;2023-04-01T04:31:59;12.63;;;9.20;;
8100;SDS011;4093;53.470;9.832;2023-04-01T04:34:27;13.47;;;8.80;;
8100;SDS011;4093;53.470;9.832;2023-04-01T04:36:54;14.77;;;9.80;;
8100;SDS011;4093;53.470;9.832;2023-04-01T04:39:22;11.13;;;9.77;;
8100;SDS011;4093;53.470;9.832;2023-04-01T04:41:51;13.10;;;9.47;;
8100;SDS011;4093;53.470;9.832;2023-04-01T04:44:19;14.37;;;9.03;;
8100;SDS011;4093;53.470;9.832;2023-04-01T04:46:47;16.93;;;9.40;;
8100;SDS011;4093;53.470;9.832;2023-04-01T04:49:14;14.63;;;9.63;;
8100;SDS011;4093;53.470;9.832;2023-04-01T04:51:42;12.87;;;9.17;;
8100;SDS011;4093;53.470;9.832;2023-04-01T04:54:10;11.47;;;9.03;;
8100;SDS011;4093;53.470;9.832;2023-04-01T04:56:38;15.57;;;8.97;;
8100;SDS011;4093;53.470;9.832;2023-04-01T04:59:07;13.20;;;9.50;;
8100;SDS011;4093;53.470;9.832;2023-04-01T05:01:34;11.70;;;9.27;;
8100;SDS011;4093;53.470;9.832;2023-04-01T05:04:02;15.40;;;9.30;;
8100;SDS011;4093;53.470;9.832;2023-04-01T05:06:30;12.73;;;9.37;;
8100;SDS011;4093;53.470;9.832;2023-04-01T05:08:58;12.93;;;9.83;;
8100;SDS011;4093;53.470;9.832;2023-04-01T05:11:26;14.43;;;9.67;;
8100;SDS011;4093;53.470;9.832;2023-04-01T05:13:53;15.03;;;9.90;;
8100;SDS011;4093;53.470;9.832;2023-04-01T05:16:23;11.03;;;9.30;;
8100;SDS011;4093;53.470;9.832;2023-04-01T05:18:50;12.83;;;9.40;;
8100;SDS011;4093;53.470;9.832;2023-04-01T05:21:18;13.53;;;9.60;;
8100;SDS011;4093;53.470;9.832;2023-04-01T05:23:46;15.33;;;9.80;;
8100;SDS011;4093;53.470;9.832;2023-04-01T05:26:14;16.93;;;10.13;;
8100;SDS011;4093;53.470;9.832;2023-04-01T05:28:42;13.23;;;9.10;;
8100;SDS011;4093;53.470;9.832;2023-04-01T05:31:09;14.47;;;10.13;;
8100;SDS011;4093;53.470;9.832;2023-04-01T05:33:39;13.70;;;9.97;;
8100;SDS011;4093;53.470;9.832;2023-04-01T05:36:07;15.00;;;10.27;;
8100;SDS011;4093;53.470;9.832;2023-04-01T05:38:36;14.23;;;10.10;;
8100;SDS011;4093;53.470;9.832;2023-04-01T05:41:04;13.63;;;9.43;;
8100;SDS011;4093;53.470;9.832;2023-04-01T05:43:31;13.03;;;10.27;;
8100;SDS011;4093;53.470;9.832;2023-04-01T05:45:59;13.40;;;9.53;;
8100;SDS011;4093;53.470;9.832;2023-04-01T05:48:27;16.23;;;9.33;;
8100;SDS011;4093;53.470;9.832;2023-04-01T05:50:56;11.53;;;8.90;;
8100;SDS011;4093;53.470;9.832;2023-04-01T05:53:24;14.77;;;8.60;;
8100;SDS011;4093;53.470;9.832;2023-04-01T05:55:52;12.23;;;8.60;;
8100;SDS011;4093;53.470;9.832;2023-04-01T05:58:19;10.37;;;8.27;;
8100;SDS011;4093;53.470;9.832;2023-04-01T06:00:47;13.37;;;8.03;;
8100;SDS011;4093;53.470;9.832;2023-04-01T06:03:33;10.97;;;7.67;;
8100;SDS011;4093;53.470;9.832;2023-04-01T06:06:03;8.93;;;7.07;;
8100;SDS011;4093;53.470;9.832;2023-04-01T06:08:41;10.37;;;7.70;;
8100;SDS011;4093;53.470;9.832;2023-04-01T06:11:13;8.47;;;7.50;;
8100;SDS011;4093;53.470;9.832;2023-04-01T06:13:53;8.00;;;6.83;;
8100;SDS011;4093;53.470;9.832;2023-04-01T06:16:33;9.67;;;7.27;;
8100;SDS011;4093;53.470;9.832;2023-04-01T06:19:16;8.97;;;6.73;;
8100;SDS011;4093;53.470;9.832;2023-04-01T06:22:05;7.93;;;6.10;;
8100;SDS011;4093;53.470;9.832;2023-04-01T06:24:47;6.97;;;6.27;;
8100;SDS011;4093;53.470;9.832;2023-04-01T06:27:34;11.37;;;6.67;;
8100;SDS011;4093;53.470;9.832;2023-04-01T06:30:16;6.93;;;5.87;;
8100;SDS011;4093;53.470;9.832;2023-04-01T06:39:15;3.27;;;3.00;;
8100;SDS011;4093;53.470;9.832;2023-04-01T06:42:03;3.30;;;3.00;;
8100;SDS011;4093;53.470;9.832;2023-04-01T06:44:42;3.53;;;2.50;;
8100;SDS011;4093;53.470;9.832;2023-04-01T06:47:23;1.97;;;1.87;;
8100;SDS011;4093;53.470;9.832;2023-04-01T06:50:04;1.57;;;1.47;;
8100;SDS011;4093;53.470;9.832;2023-04-01T06:52:41;1.80;;;1.70;;
8100;SDS011;4093;53.470;9.832;2023-04-01T06:55:21;2.17;;;2.00;;
8100;SDS011;4093;53.470;9.832;2023-04-01T06:57:55;2.33;;;1.80;;
8100;SDS011;4093;53.470;9.832;2023-04-01T07:00:27;1.70;;;1.60;;
8100;SDS011;4093;53.470;9.832;2023-04-01T07:03:00;1.90;;;1.80;;
8100;SDS011;4093;53.470;9.832;2023-04-01T07:05:36;2.10;;;1.60;;
8100;SDS011;4093;53.470;9.832;2023-04-01T07:08:04;1.77;;;1.67;;
8100;SDS011;4093;53.470;9.832;2023-04-01T07:10:41;1.83;;;1.73;;
8100;SDS011;4093;53.470;9.832;2023-04-01T07:13:14;1.60;;;1.50;;
8100;SDS011;4093;53.470;9.832;2023-04-01T07:15:50;1.70;;;1.60;;
8100;SDS011;4093;53.470;9.832;2023-04-01T07:18:28;1.60;;;1.50;;
8100;SDS011;4093;53.470;9.832;2023-04-01T07:21:03;1.60;;;1.50;;
8100;SDS011;4093;53.470;9.832;2023-04-01T07:23:38;1.83;;;1.73;;
8100;SDS011;4093;53.470;9.832;2023-04-01T07:26:15;1.80;;;1.70;;
8100;SDS011;4093;53.470;9.832;2023-04-01T07:28:46;1.77;;;1.67;;
8100;SDS011;4093;53.470;9.832;2023-04-01T07:31:18;2.60;;;2.07;;
8100;SDS011;4093;53.470;9.832;2023-04-01T07:33:59;1.87;;;1.77;;
8100;SDS011;4093;53.470;9.832;2023-04-01T07:36:33;2.33;;;2.13;;
8100;SDS011;4093;53.470;9.832;2023-04-01T07:39:10;2.13;;;2.00;;
8100;SDS011;4093;53.470;9.832;2023-04-01T07:41:51;2.13;;;1.93;;
8100;SDS011;4093;53.470;9.832;2023-04-01T07:44:28;1.93;;;1.83;;
8100;SDS011;4093;53.470;9.832;2023-04-01T07:50:00;1.70;;;1.60;;
8100;SDS011;4093;53.470;9.832;2023-04-01T07:52:39;1.80;;;1.70;;
8100;SDS011;4093;53.470;9.832;2023-04-01T07:55:16;2.00;;;1.80;;
8100;SDS011;4093;53.470;9.832;2023-04-01T07:57:53;2.03;;;1.80;;
8100;SDS011;4093;53.470;9.832;2023-04-01T08:00:30;2.67;;;1.97;;
8100;SDS011;4093;53.470;9.832;2023-04-01T08:03:14;1.80;;;1.70;;
8100;SDS011;4093;53.470;9.832;2023-04-01T08:05:54;1.70;;;1.60;;
8100;SDS011;4093;53.470;9.832;2023-04-01T08:08:27;1.80;;;1.70;;
8100;SDS011;4093;53.470;9.832;2023-04-01T08:11:04;1.93;;;1.23;;
8100;SDS011;4093;53.470;9.832;2023-04-01T08:13:42;3.77;;;1.77;;
8100;SDS011;4093;53.470;9.832;2023-04-01T08:16:15;1.57;;;1.47;;
8100;SDS011;4093;53.470;9.832;2023-04-01T08:18:51;1.90;;;1.77;;
8100;SDS011;4093;53.470;9.832;2023-04-01T08:21:27;1.83;;;1.73;;
8100;SDS011;4093;53.470;9.832;2023-04-01T08:24:00;1.83;;;1.57;;
8100;SDS011;4093;53.470;9.832;2023-04-01T08:26:39;1.43;;;1.40;;
8100;SDS011;4093;53.470;9.832;2023-04-01T08:29:13;1.33;;;1.27;;
8100;SDS011;4093;53.470;9.832;2023-04-01T08:31:45;1.37;;;1.27;;
8100;SDS011;4093;53.470;9.832;2023-04-01T08:34:20;1.50;;;1.40;;
8100;SDS011;4093;53.470;9.832;2023-04-01T08:36:51;2.80;;;1.40;;
8100;SDS011;4093;53.470;9.832;2023-04-01T08:39:28;1.30;;;1.30;;
8100;SDS011;4093;53.470;9.832;2023-04-01T08:42:10;1.70;;;1.60;;
8100;SDS011;4093;53.470;9.832;2023-04-01T08:47:56;1.57;;;1.47;;
8100;SDS011;4093;53.470;9.832;2023-04-01T08:50:49;1.20;;;1.20;;
8100;SDS011;4093;53.470;9.832;2023-04-01T08:53:35;1.50;;;1.40;;
8100;SDS011;4093;53.470;9.832;2023-04-01T08:56:17;1.07;;;1.07;;
8100;SDS011;4093;53.470;9.832;2023-04-01T08:58:54;1.40;;;1.30;;
8100;SDS011;4093;53.470;9.832;2023-04-01T09:04:47;1.57;;;1.47;;
8100;SDS011;4093;53.470;9.832;2023-04-01T09:07:36;1.60;;;1.50;;
8100;SDS011;4093;53.470;9.832;2023-04-01T09:10:16;1.77;;;1.63;;
8100;SDS011;4093;53.470;9.832;2023-04-01T09:16:21;1.80;;;1.70;;
8100;SDS011;4093;53.470;9.832;2023-04-01T09:19:10;1.50;;;1.40;;
8100;SDS011;4093;53.470;9.832;2023-04-01T09:21:47;2.03;;;1.83;;
8100;SDS011;4093;53.470;9.832;2023-04-01T09:24:30;1.30;;;1.30;;
8100;SDS011;4093;53.470;9.832;2023-04-01T09:27:10;1.40;;;1.40;;
8100;SDS011;4093;53.470;9.832;2023-04-01T09:29:54;1.50;;;1.40;;
8100;SDS011;4093;53.470;9.832;2023-04-01T09:35:47;1.63;;;1.53;;
8100;SDS011;4093;53.470;9.832;2023-04-01T09:38:20;3.07;;;1.50;;
8100;SDS011;4093;53.470;9.832;2023-04-01T09:40:54;1.73;;;1.30;;
8100;SDS011;4093;53.470;9.832;2023-04-01T09:43:27;1.43;;;1.33;;
8100;SDS011;4093;53.470;9.832;2023-04-01T09:46:00;2.27;;;1.53;;
8100;SDS011;4093;53.470;9.832;2023-04-01T09:48:43;2.30;;;1.70;;
8100;SDS011;4093;53.470;9.832;2023-04-01T09:51:26;2.20;;;2.00;;
8100;SDS011;4093;53.470;9.832;2023-04-01T09:54:06;4.00;;;2.20;;
8100;SDS011;4093;53.470;9.832;2023-04-01T09:59:47;1.70;;;1.60;;
8100;SDS011;4093;53.470;9.832;2023-04-01T10:02:41;1.90;;;1.80;;
8100;SDS011;4093;53.470;9.832;2023-04-01T10:05:38;1.73;;;1.63;;
8100;SDS011;4093;53.470;9.832;2023-04-01T10:11:56;2.07;;;1.60;;
8100;SDS011;4093;53.470;9.832;2023-04-01T10:14:45;1.87;;;1.30;;
8100;SDS011;4093;53.470;9.832;2023-04-01T10:17:49;1.70;;;1.53;;
8100;SDS011;4093;53.470;9.832;2023-04-01T10:23:43;1.47;;;1.40;;
8100;SDS011;4093;53.470;9.832;2023-04-01T10:26:35;1.37;;;1.30;;
8100;SDS011;4093;53.470;9.832;2023-04-01T10:29:24;1.43;;;1.43;;
8100;SDS011;4093;53.470;9.832;2023-04-01T10:32:16;1.30;;;1.30;;
8100;SDS011;4093;53.470;9.832;2023-04-01T10:35:20;1.50;;;1.40;;
8100;SDS011;4093;53.470;9.832;2023-04-01T10:38:08;1.70;;;1.60;;
8100;SDS011;4093;53.470;9.832;2023-04-01T10:41:11;1.40;;;1.30;;
8100;SDS011;4093;53.470;9.832;2023-04-01T10:47:19;1.50;;;1.40;;
8100;SDS011;4093;53.470;9.832;2023-04-01T10:53:28;1.80;;;1.70;;
8100;SDS011;4093;53.470;9.832;2023-04-01T11:02:19;1.60;;;1.50;;
8100;SDS011;4093;53.470;9.832;2023-04-01T11:08:26;2.90;;;1.57;;
8100;SDS011;4093;53.470;9.832;2023-04-01T11:11:28;1.63;;;1.53;;
8100;SDS011;4093;53.470;9.832;2023-04-01T11:14:32;2.03;;;1.50;;
8100;SDS011;4093;53.470;9.832;2023-04-01T11:17:28;2.00;;;1.87;;
8100;SDS011;4093;53.470;9.832;2023-04-01T11:23:13;1.50;;;1.40;;
8100;SDS011;4093;53.470;9.832;2023-04-01T11:25:55;1.37;;;1.30;;
8100;SDS011;4093;53.470;9.832;2023-04-01T11:31:40;3.17;;;1.70;;
8100;SDS011;4093;53.470;9.832;2023-04-01T11:34:20;2.60;;;1.80;;
8100;SDS011;4093;53.470;9.832;2023-04-01T11:37:02;1.90;;;1.77;;
8100;SDS011;4093;53.470;9.832;2023-04-01T11:39:41;1.80;;;1.70;;
8100;SDS011;4093;53.470;9.832;2023-04-01T11:42:30;5.33;;;2.13;;
8100;SDS011;4093;53.470;9.832;2023-04-01T11:45:12;2.40;;;1.87;;
8100;SDS011;4093;53.470;9.832;2023-04-01T11:48:03;2.13;;;1.90;;
8100;SDS011;4093;53.470;9.832;2023-04-01T11:50:46;3.57;;;2.10;;
8100;SDS011;4093;53.470;9.832;2023-04-01T11:53:26;2.60;;;1.90;;
8100;SDS011;4093;53.470;9.832;2023-04-01T11:56:18;1.40;;;1.30;;
8100;SDS011;4093;53.470;9.832;2023-04-01T11:59:05;2.13;;;1.93;;
8100;SDS011;4093;53.470;9.832;2023-04-01T12:01:58;2.57;;;1.80;;
8100;SDS011;4093;53.470;9.832;2023-04-01T12:04:38;1.80;;;1.70;;
8100;SDS011;4093;53.470;9.832;2023-04-01T12:07:27;1.70;;;1.60;;
8100;SDS011;4093;53.470;9.832;2023-04-01T12:10:17;2.37;;;2.17;;
8100;SDS011;4093;53.470;9.832;2023-04-01T12:12:49;3.13;;;1.93;;
8100;SDS011;4093;53.470;9.832;2023-04-01T12:15:29;2.10;;;1.80;;
8100;SDS011;4093;53.470;9.832;2023-04-01T12:18:05;2.10;;;2.00;;
8100;SDS011;4093;53.470;9.832;2023-04-01T12:20:47;3.77;;;2.20;;
8100;SDS011;4093;53.470;9.832;2023-04-01T12:23:26;2.17;;;1.97;;
8100;SDS011;4093;53.470;9.832;2023-04-01T12:26:12;2.93;;;2.67;;
8100;SDS011;4093;53.470;9.832;2023-04-01T12:28:59;2.80;;;2.60;;
8100;SDS011;4093;53.470;9.832;2023-04-01T12:31:38;3.30;;;2.70;;
8100;SDS011;4093;53.470;9.832;2023-04-01T12:37:12;6.67;;;5.97;;
8100;SDS011;4093;53.470;9.832;2023-04-01T12:39:55;3.63;;;3.33;;
8100;SDS011;4093;53.470;9.832;2023-04-01T12:42:36;3.50;;;3.13;;
8100;SDS011;4093;53.470;9.832;2023-04-01T12:45:24;5.63;;;3.90;;
8100;SDS011;4093;53.470;9.832;2023-04-01T12:51:08;2.80;;;2.60;;
8100;SDS011;4093;53.470;9.832;2023-04-01T12:57:06;2.60;;;2.40;;
8100;SDS011;4093;53.470;9.832;2023-04-01T12:59:53;3.43;;;2.17;;
8100;SDS011;4093;53.470;9.832;2023-04-01T13:02:37;4.23;;;3.17;;
8100;SDS011;4093;53.470;9.832;2023-04-01T13:05:20;4.30;;;3.60;;
8100;SDS011;4093;53.470;9.832;2023-04-01T13:08:00;4.07;;;3.50;;
8100;SDS011;4093;53.470;9.832;2023-04-01T13:10:45;3.97;;;3.50;;
8100;SDS011;4093;53.470;9.832;2023-04-01T13:16:58;3.50;;;3.20;;
8100;SDS011;4093;53.470;9.832;2023-04-01T13:19:36;5.33;;;3.33;;
8100;SDS011;4093;53.470;9.832;2023-04-01T13:22:32;4.47;;;3.50;;
8100;SDS011;4093;53.470;9.832;2023-04-01T13:25:10;4.30;;;3.50;;
8100;SDS011;4093;53.470;9.832;2023-04-01T13:27:47;3.67;;;3.23;;
8100;SDS011;4093;53.470;9.832;2023-04-01T13:30:22;5.83;;;3.17;;
8100;SDS011;4093;53.470;9.832;2023-04-01T13:32:57;4.13;;;3.73;;
8100;SDS011;4093;53.470;9.832;2023-04-01T13:35:31;3.93;;;3.33;;
8100;SDS011;4093;53.470;9.832;2023-04-01T13:38:16;5.37;;;3.93;;
8100;SDS011;4093;53.470;9.832;2023-04-01T13:40:56;5.17;;;4.30;;
8100;SDS011;4093;53.470;9.832;2023-04-01T13:43:35;5.57;;;4.50;;
8100;SDS011;4093;53.470;9.832;2023-04-01T13:46:09;4.47;;;3.97;;
8100;SDS011;4093;53.470;9.832;2023-04-01T13:49:02;6.10;;;3.57;;
8100;SDS011;4093;53.470;9.832;2023-04-01T13:54:49;5.40;;;3.70;;
8100;SDS011;4093;53.470;9.832;2023-04-01T13:57:31;3.90;;;3.37;;
8100;SDS011;4093;53.470;9.832;2023-04-01T14:00:19;7.80;;;3.70;;
8100;SDS011;4093;53.470;9.832;2023-04-01T14:05:59;4.60;;;3.27;;
8100;SDS011;4093;53.470;9.832;2023-04-01T14:08:36;7.00;;;3.30;;
8100;SDS011;4093;53.470;9.832;2023-04-01T14:11:16;3.73;;;2.80;;
8100;SDS011;4093;53.470;9.832;2023-04-01T14:13:53;3.97;;;3.13;;
8100;SDS011;4093;53.470;9.832;2023-04-01T14:16:38;3.77;;;3.37;;
8100;SDS011;4093;53.470;9.832;2023-04-01T14:19:27;6.27;;;3.50;;
8100;SDS011;4093;53.470;9.832;2023-04-01T14:22:09;5.67;;;3.53;;
8100;SDS011;4093;53.470;9.832;2023-04-01T14:24:51;8.00;;;4.00;;
8100;SDS011;4093;53.470;9.832;2023-04-01T14:27:41;6.20;;;4.10;;
8100;SDS011;4093;53.470;9.832;2023-04-01T14:30:20;5.13;;;3.60;;
8100;SDS011;4093;53.470;9.832;2023-04-01T14:33:12;6.30;;;3.70;;
8100;SDS011;4093;53.470;9.832;2023-04-01T14:35:49;5.37;;;3.57;;
8100;SDS011;4093;53.470;9.832;2023-04-01T14:38:35;5.80;;;3.33;;
8100;SDS011;4093;53.470;9.832;2023-04-01T14:41:19;6.00;;;3.80;;
8100;SDS011;4093;53.470;9.832;2023-04-01T14:50:04;5.13;;;3.70;;
8100;SDS011;4093;53.470;9.832;2023-04-01T14:52:38;5.83;;;4.03;;
8100;SDS011;4093;53.470;9.832;2023-04-01T14:55:20;7.97;;;4.80;;
8100;SDS011;4093;53.470;9.832;2023-04-01T14:58:07;6.53;;;4.33;;
8100;SDS011;4093;53.470;9.832;2023-04-01T15:00:42;7.70;;;4.73;;
8100;SDS011;4093;53.470;9.832;2023-04-01T15:03:18;9.20;;;6.70;;
8100;SDS011;4093;53.470;9.832;2023-04-01T15:05:51;8.73;;;4.87;;
8100;SDS011;4093;53.470;9.832;2023-04-01T15:08:24;12.30;;;6.70;;
8100;SDS011;4093;53.470;9.832;2023-04-01T15:11:10;9.77;;;6.60;;
8100;SDS011;4093;53.470;9.832;2023-04-01T15:14:02;11.47;;;6.20;;
8100;SDS011;4093;53.470;9.832;2023-04-01T15:16:41;14.43;;;6.40;;
8100;SDS011;4093;53.470;9.832;2023-04-01T15:19:21;12.53;;;7.23;;
8100;SDS011;4093;53.470;9.832;2023-04-01T15:22:05;10.67;;;5.60;;
8100;SDS011;4093;53.470;9.832;2023-04-01T15:24:56;11.27;;;6.80;;
8100;SDS011;4093;53.470;9.832;2023-04-01T15:27:36;8.80;;;6.00;;
8100;SDS011;4093;53.470;9.832;2023-04-01T15:30:14;10.33;;;5.87;;
8100;SDS011;4093;53.470;9.832;2023-04-01T15:32:55;8.67;;;5.03;;
8100;SDS011;4093;53.470;9.832;2023-04-01T15:35:37;5.43;;;3.93;;
8100;SDS011;4093;53.470;9.832;2023-04-01T15:38:14;7.30;;;5.60;;
8100;SDS011;4093;53.470;9.832;2023-04-01T15:40:53;9.93;;;5.63;;
8100;SDS011;4093;53.470;9.832;2023-04-01T15:43:33;12.33;;;7.37;;
8100;SDS011;4093;53.470;9.832;2023-04-01T15:46:09;10.90;;;6.10;;
8100;SDS011;4093;53.470;9.832;2023-04-01T15:51:41;8.00;;;5.37;;
8100;SDS011;4093;53.470;9.832;2023-04-01T15:54:33;7.50;;;4.60;;
8100;SDS011;4093;53.470;9.832;2023-04-01T15:57:20;10.37;;;5.67;;
8100;SDS011;4093;53.470;9.832;2023-04-01T16:00:00;8.53;;;5.23;;
8100;SDS011;4093;53.470;9.832;2023-04-01T16:02:39;8.40;;;4.47;;
8100;SDS011;4093;53.470;9.832;2023-04-01T16:05:22;7.33;;;4.50;;
8100;SDS011;4093;53.470;9.832;2023-04-01T16:08:14;7.87;;;5.83;;
8100;SDS011;4093;53.470;9.832;2023-04-01T16:10:57;6.47;;;4.63;;
8100;SDS011;4093;53.470;9.832;2023-04-01T16:13:37;7.63;;;4.80;;
8100;SDS011;4093;53.470;9.832;2023-04-01T16:16:19;10.67;;;5.40;;
8100;SDS011;4093;53.470;9.832;2023-04-01T16:21:54;8.83;;;5.33;;
8100;SDS011;4093;53.470;9.832;2023-04-01T16:24:30;9.03;;;5.23;;
8100;SDS011;4093;53.470;9.832;2023-04-01T16:27:04;6.23;;;4.83;;
8100;SDS011;4093;53.470;9.832;2023-04-01T16:29:40;9.07;;;5.20;;
8100;SDS011;4093;53.470;9.832;2023-04-01T16:32:29;10.93;;;4.83;;
8100;SDS011;4093;53.470;9.832;2023-04-01T16:35:13;9.63;;;6.10;;
8100;SDS011;4093;53.470;9.832;2023-04-01T16:37:50;12.47;;;6.00;;
8100;SDS011;4093;53.470;9.832;2023-04-01T16:40:24;6.87;;;5.53;;
8100;SDS011;4093;53.470;9.832;2023-04-01T16:43:10;7.33;;;5.37;;
8100;SDS011;4093;53.470;9.832;2023-04-01T16:45:45;11.13;;;6.23;;
8100;SDS011;4093;53.470;9.832;2023-04-01T16:48:21;9.90;;;6.27;;
8100;SDS011;4093;53.470;9.832;2023-04-01T16:50:58;10.60;;;6.47;;
8100;SDS011;4093;53.470;9.832;2023-04-01T16:53:30;10.50;;;6.70;;
8100;SDS011;4093;53.470;9.832;2023-04-01T16:56:10;12.30;;;5.60;;
8100;SDS011;4093;53.470;9.832;2023-04-01T16:58:41;10.00;;;6.27;;
8100;SDS011;4093;53.470;9.832;2023-04-01T17:01:16;11.03;;;5.93;;
8100;SDS011;4093;53.470;9.832;2023-04-01T17:03:51;11.90;;;6.10;;
8100;SDS011;4093;53.470;9.832;2023-04-01T17:06:28;8.70;;;5.20;;
8100;SDS011;4093;53.470;9.832;2023-04-01T17:11:58;10.07;;;6.33;;
8100;SDS011;4093;53.470;9.832;2023-04-01T17:14:33;7.33;;;4.83;;
8100;SDS011;4093;53.470;9.832;2023-04-01T17:17:14;10.93;;;5.57;;
8100;SDS011;4093;53.470;9.832;2023-04-01T17:20:04;8.03;;;4.77;;
8100;SDS011;4093;53.470;9.832;2023-04-01T17:22:44;6.93;;;4.73;;
8100;SDS011;4093;53.470;9.832;2023-04-01T17:25:24;9.07;;;4.97;;
8100;SDS011;4093;53.470;9.832;2023-04-01T17:28:12;10.30;;;5.63;;
8100;SDS011;4093;53.470;9.832;2023-04-01T17:30:52;5.77;;;4.47;;
8100;SDS011;4093;53.470;9.832;2023-04-01T17:33:31;7.87;;;4.30;;
8100;SDS011;4093;53.470;9.832;2023-04-01T17:36:11;6.50;;;5.20;;
8100;SDS011;4093;53.470;9.832;2023-04-01T17:41:44;7.03;;;5.50;;
8100;SDS011;4093;53.470;9.832;2023-04-01T17:44:21;8.17;;;4.80;;